Startpagina
METAR-TAF:

METAR-TAF

Vliegvelden :

Jekaterinenburg, Rusland

Luchthaven Koltsovo

breedte: 56-50N, lengte: 060-38E, hoogte: 237 m

Actueel weer

Dit bericht is 41 minuten geleden gemaakt, om 00:00 UTC
Wind 2 kt uit het zuidzuidwesten
Temperatuur 14°C
Vochtigheid 94%
Druk 1005 hPa
Zicht 10 km of meer
Verspreide wolken op 4900 ft

METAR: USSS 250000Z 21001MPS 9999 SCT049 14/13 Q1005 R26R/010060 NOSIG RMK QFE733/0978

Tijdstip: 05:41 (00:41 UTC)

Verwachting

Dit bericht is 1 uur en het 46 minuten geleden gemaakt, om 22:55 UTC
Verwachting geldig van 25 om 00 UTC tot 25 om 24 UTC
Wind 8 kt uit het westen
Zicht: 3100 m
Verspreide wolken op 1100 ft
Verspreide wolken op 2000 ft, Cumulonimbus.
nevel
Wijzigt naar
van 25 om 01 UTC tot 25 om 02 UTC
Zicht 10 km of meer
Tijdelijke
van 25 om 02 UTC tot 25 om 09 UTC
Zicht: 3100 m
lichte regenbuien

TAF: USSS 242255Z 2500/2524 26004MPS 3100 BR SCT011 SCT020CB BECMG 2501/2502 9999 NSW TEMPO 2502/2509 3100 -SHRA

Waarnemingen en weersverwachtingen van meer dan 4000 vliegvelden (METAR en TAF).

De beschikbare stations zijn de gele en rode punten op de kaart.

Ga met uw muis naar het station om de naam te zien.

Klik dan om waarnemingen en weersverwachtingen te zien.

kaart wijzigen: klik op de groene knoppen met een zwart kruis om in te zoomen, op de groene knop met een streepje om uit te zoomen of op de groene pijlen voor aangrenzende kaarten.


METAR-TAF: